createdAt,value
2019-01-13T00:02:13.942Z,2.30
2019-01-13T00:04:44.248Z,2.30
2019-01-13T00:07:15.710Z,2.30
2019-01-13T00:09:46.044Z,2.30
2019-01-13T00:12:19.841Z,2.30
2019-01-13T00:14:48.824Z,2.30
2019-01-13T00:17:19.247Z,2.30
2019-01-13T00:19:50.452Z,2.30
2019-01-13T00:22:25.449Z,2.30
2019-01-13T00:24:56.043Z,2.40
2019-01-13T00:27:26.989Z,2.40
2019-01-13T00:29:58.789Z,2.40
2019-01-13T00:32:34.158Z,2.30
2019-01-13T00:35:09.065Z,2.30
2019-01-13T00:37:38.961Z,2.40
2019-01-13T00:40:15.039Z,2.30
2019-01-13T00:42:45.131Z,2.40
2019-01-13T00:45:16.614Z,2.30
2019-01-13T00:47:47.047Z,2.40
2019-01-13T00:50:28.476Z,2.40
2019-01-13T00:53:02.373Z,2.40
2019-01-13T00:55:35.032Z,2.40
2019-01-13T00:58:06.386Z,2.30
2019-01-13T01:00:38.478Z,2.40
2019-01-13T01:03:12.558Z,2.40
2019-01-13T01:05:46.382Z,2.40
2019-01-13T01:08:24.835Z,2.40
2019-01-13T01:10:58.675Z,2.40
2019-01-13T01:13:29.999Z,2.40
2019-01-13T01:16:00.056Z,2.40
2019-01-13T01:18:30.779Z,2.40
2019-01-13T01:21:01.613Z,2.40
2019-01-13T01:23:32.426Z,2.40
2019-01-13T01:26:03.272Z,2.40
2019-01-13T01:28:40.078Z,2.40
2019-01-13T01:31:10.685Z,2.40
2019-01-13T01:33:41.208Z,2.40
2019-01-13T01:36:11.315Z,2.40
2019-01-13T01:38:43.154Z,2.40
2019-01-13T01:41:14.764Z,2.40
2019-01-13T01:43:45.192Z,2.40
2019-01-13T01:46:19.225Z,2.40
2019-01-13T01:48:50.200Z,2.40
2019-01-13T01:51:25.254Z,2.40
2019-01-13T01:54:03.757Z,2.40
2019-01-13T01:56:35.586Z,2.40
2019-01-13T01:59:06.728Z,2.40
2019-01-13T02:01:36.694Z,2.40
2019-01-13T02:04:07.962Z,2.40
2019-01-13T02:06:53.327Z,2.50
2019-01-13T02:09:30.906Z,2.50
2019-01-13T02:12:01.188Z,2.50
2019-01-13T02:14:31.579Z,2.50
2019-01-13T02:17:02.305Z,2.60
2019-01-13T02:19:38.605Z,2.60
2019-01-13T02:22:11.570Z,2.60
2019-01-13T02:24:44.222Z,2.60
2019-01-13T02:27:15.306Z,2.60
2019-01-13T02:29:54.121Z,2.60
2019-01-13T02:32:24.268Z,2.60
2019-01-13T02:34:54.759Z,2.70
2019-01-13T02:37:26.634Z,2.70
2019-01-13T02:39:59.961Z,2.70
2019-01-13T02:42:41.431Z,2.70
2019-01-13T02:45:17.641Z,2.70
2019-01-13T02:47:48.164Z,2.70
2019-01-13T02:50:21.092Z,2.70
2019-01-13T02:53:01.304Z,2.70
2019-01-13T02:55:31.629Z,2.80
2019-01-13T02:58:01.688Z,2.80
2019-01-13T03:00:34.132Z,2.80
2019-01-13T03:03:04.238Z,2.70
2019-01-13T03:05:35.120Z,2.80
2019-01-13T03:08:06.355Z,2.80
2019-01-13T03:10:41.479Z,2.80
2019-01-13T03:13:11.915Z,2.80
2019-01-13T03:15:48.150Z,2.80
2019-01-13T03:18:21.098Z,2.80
2019-01-13T03:20:52.331Z,2.80
2019-01-13T03:23:25.876Z,2.80
2019-01-13T03:25:59.684Z,2.90
2019-01-13T03:28:30.507Z,2.90
2019-01-13T03:31:12.271Z,2.90
2019-01-13T03:33:41.605Z,2.90
2019-01-13T03:36:14.558Z,2.90
2019-01-13T03:38:48.052Z,3.00
2019-01-13T03:41:19.315Z,2.90
2019-01-13T03:43:49.444Z,2.90
2019-01-13T03:46:21.868Z,2.90
2019-01-13T03:49:19.329Z,3.00
2019-01-13T03:51:50.202Z,3.00
2019-01-13T03:54:20.059Z,3.00
2019-01-13T03:57:00.771Z,3.00
2019-01-13T03:59:31.673Z,3.00
2019-01-13T04:02:02.299Z,3.00
2019-01-13T04:04:37.185Z,3.00
2019-01-13T04:07:07.815Z,3.00
2019-01-13T04:09:41.174Z,3.00
2019-01-13T04:12:15.840Z,3.00
2019-01-13T04:14:46.279Z,3.00
2019-01-13T04:17:18.519Z,3.00
2019-01-13T04:19:49.509Z,3.00
2019-01-13T04:22:20.194Z,3.00
2019-01-13T04:25:07.727Z,3.00
2019-01-13T04:27:47.452Z,3.00
2019-01-13T04:30:35.917Z,3.00
2019-01-13T04:33:05.131Z,3.00
2019-01-13T04:35:35.181Z,3.00
2019-01-13T04:38:05.603Z,3.00
2019-01-13T04:40:43.858Z,3.00
2019-01-13T04:43:26.566Z,3.00
2019-01-13T04:45:57.845Z,3.00
2019-01-13T04:48:28.122Z,3.00
2019-01-13T04:50:59.782Z,3.00
2019-01-13T04:53:33.520Z,3.00
2019-01-13T04:56:04.007Z,3.00
2019-01-13T04:58:35.032Z,3.00
2019-01-13T05:01:06.193Z,2.90
2019-01-13T05:03:59.252Z,3.00
2019-01-13T05:06:42.616Z,3.00
2019-01-13T05:09:13.801Z,2.90
2019-01-13T05:12:01.450Z,2.90
2019-01-13T05:14:33.763Z,2.90
2019-01-13T05:17:05.751Z,2.90
2019-01-13T05:19:35.767Z,3.00
2019-01-13T05:22:09.610Z,3.00
2019-01-13T05:24:37.952Z,3.00
2019-01-13T05:30:37.670Z,3.00
2019-01-13T05:33:08.231Z,3.00
2019-01-13T05:35:39.290Z,3.00
2019-01-13T05:38:37.205Z,3.00
2019-01-13T05:41:08.043Z,3.00
2019-01-13T05:43:39.200Z,3.00
2019-01-13T05:46:15.945Z,3.00
2019-01-13T05:48:48.858Z,3.00
2019-01-13T05:51:20.833Z,3.00
2019-01-13T05:53:52.119Z,3.00
2019-01-13T05:56:22.664Z,3.00
2019-01-13T05:59:15.493Z,3.10
2019-01-13T06:01:49.315Z,3.00
2019-01-13T06:04:22.884Z,3.00
2019-01-13T06:06:53.046Z,3.00
2019-01-13T06:09:24.438Z,3.00
2019-01-13T06:11:55.094Z,3.00
2019-01-13T06:14:28.955Z,3.10
2019-01-13T06:16:59.411Z,3.10
2019-01-13T06:19:29.247Z,3.10
2019-01-13T06:21:59.856Z,3.10
2019-01-13T06:24:31.024Z,3.10
2019-01-13T06:27:07.362Z,3.10
2019-01-13T06:29:38.689Z,3.10
2019-01-13T06:32:09.953Z,3.10
2019-01-13T06:34:46.255Z,3.10
2019-01-13T06:41:42.831Z,3.10
2019-01-13T06:44:43.245Z,3.10
2019-01-13T06:51:58.264Z,3.10
2019-01-13T07:02:14.297Z,3.10
2019-01-13T07:05:25.804Z,3.10
2019-01-13T07:08:03.253Z,3.10
2019-01-13T07:10:47.244Z,3.10
2019-01-13T07:13:31.134Z,3.10
2019-01-13T07:16:45.515Z,3.10
2019-01-13T07:19:44.465Z,3.20
2019-01-13T07:22:14.606Z,3.10
2019-01-13T07:24:44.159Z,3.20
2019-01-13T07:27:14.639Z,3.10
2019-01-13T07:29:44.709Z,3.10
2019-01-13T07:32:14.676Z,3.10
2019-01-13T07:34:45.030Z,3.10
2019-01-13T07:37:14.782Z,3.10
2019-01-13T07:39:46.483Z,3.10
2019-01-13T07:42:16.560Z,3.10
2019-01-13T07:44:46.365Z,3.10
2019-01-13T07:47:16.719Z,3.10
2019-01-13T07:49:46.679Z,3.10
2019-01-13T07:52:17.369Z,3.10
2019-01-13T07:54:53.026Z,3.10
2019-01-13T07:57:23.872Z,3.10
2019-01-13T07:59:53.968Z,3.10
2019-01-13T08:02:23.726Z,3.10
2019-01-13T08:04:53.443Z,3.20
2019-01-13T08:07:23.335Z,3.10
2019-01-13T08:09:53.865Z,3.10
2019-01-13T08:12:23.865Z,3.10
2019-01-13T08:14:54.307Z,3.10
2019-01-13T08:17:24.300Z,3.10
2019-01-13T08:19:54.906Z,3.10
2019-01-13T08:22:24.834Z,3.10
2019-01-13T08:24:54.874Z,3.20
2019-01-13T08:27:24.489Z,3.10
2019-01-13T08:37:57.832Z,3.20
2019-01-13T08:40:27.855Z,3.30
2019-01-13T08:42:58.106Z,3.30
2019-01-13T08:45:27.838Z,3.30
2019-01-13T08:47:58.512Z,3.30
2019-01-13T08:50:28.736Z,3.30
2019-01-13T08:52:58.753Z,3.30
2019-01-13T08:55:30.885Z,3.30
2019-01-13T08:58:02.150Z,3.30
2019-01-13T09:00:34.056Z,3.30
2019-01-13T09:03:05.447Z,3.20
2019-01-13T09:05:35.318Z,3.30
2019-01-13T09:08:08.370Z,3.20
2019-01-13T09:10:38.637Z,3.20
2019-01-13T09:13:09.324Z,3.20
2019-01-13T09:15:40.398Z,3.20
2019-01-13T09:18:10.514Z,3.20
2019-01-13T09:20:42.523Z,3.20
2019-01-13T09:23:13.323Z,3.20
2019-01-13T09:25:43.488Z,3.20
2019-01-13T09:28:13.961Z,3.20
2019-01-13T09:30:44.073Z,3.10
2019-01-13T09:33:13.900Z,3.10
2019-01-13T09:35:47.196Z,3.10
2019-01-13T09:38:16.811Z,3.10
2019-01-13T09:40:46.754Z,3.10
2019-01-13T09:43:24.334Z,3.10
2019-01-13T09:45:55.066Z,3.10
2019-01-13T09:48:26.567Z,3.10
2019-01-13T09:50:57.667Z,3.10
2019-01-13T09:53:28.260Z,3.10
2019-01-13T09:56:01.181Z,3.10
2019-01-13T09:58:31.236Z,3.10
2019-01-13T10:01:01.694Z,3.10
2019-01-13T10:03:31.520Z,3.10
2019-01-13T10:06:01.216Z,3.10
2019-01-13T10:08:32.884Z,3.10
2019-01-13T10:11:04.717Z,3.10
2019-01-13T10:13:34.981Z,3.10
2019-01-13T10:16:04.882Z,3.10
2019-01-13T10:18:34.772Z,3.10
2019-01-13T10:21:04.587Z,3.10
2019-01-13T10:23:36.394Z,3.10
2019-01-13T10:26:06.437Z,3.10
2019-01-13T10:28:36.550Z,3.10
2019-01-13T10:31:07.641Z,3.10
2019-01-13T10:33:37.801Z,3.10
2019-01-13T10:36:07.567Z,3.10
2019-01-13T10:38:40.508Z,3.00
2019-01-13T10:41:13.608Z,3.00
2019-01-13T10:43:46.964Z,3.00
2019-01-13T10:46:24.950Z,3.00
2019-01-13T10:48:55.153Z,3.00
2019-01-13T10:51:25.610Z,3.00
2019-01-13T10:53:57.928Z,3.00
2019-01-13T10:56:29.410Z,3.00
2019-01-13T10:58:59.623Z,3.00
2019-01-13T11:01:30.311Z,3.00
2019-01-13T11:04:00.988Z,3.00
2019-01-13T11:06:31.103Z,3.00
2019-01-13T11:09:14.049Z,3.00
2019-01-13T11:11:44.106Z,3.00
2019-01-13T11:14:14.040Z,3.00
2019-01-13T11:16:44.390Z,3.00
2019-01-13T11:19:14.688Z,3.00
2019-01-13T11:21:44.588Z,3.00
2019-01-13T11:24:14.780Z,3.00
2019-01-13T11:26:44.553Z,3.00
2019-01-13T11:29:14.064Z,3.00
2019-01-13T11:31:46.088Z,3.10
2019-01-13T11:34:17.286Z,3.00
2019-01-13T11:36:48.118Z,3.00
2019-01-13T11:39:24.138Z,3.10
2019-01-13T11:41:56.384Z,3.00
2019-01-13T11:44:26.569Z,3.10
2019-01-13T11:46:56.258Z,3.10
2019-01-13T11:49:26.399Z,3.00
2019-01-13T11:51:56.801Z,3.00
2019-01-13T11:54:27.056Z,3.00
2019-01-13T11:56:56.582Z,3.10
2019-01-13T11:59:26.242Z,3.10
2019-01-13T12:01:56.052Z,3.10
2019-01-13T12:04:25.797Z,3.10
2019-01-13T12:06:55.612Z,3.10
2019-01-13T12:09:25.923Z,3.10
2019-01-13T12:11:57.492Z,3.10
2019-01-13T12:14:33.425Z,3.10
2019-01-13T12:17:05.167Z,3.20
2019-01-13T12:19:35.857Z,3.20
2019-01-13T12:22:11.970Z,3.30
2019-01-13T12:24:43.612Z,3.30
2019-01-13T12:27:32.502Z,3.40
2019-01-13T12:30:23.017Z,3.50
2019-01-13T12:33:11.169Z,3.50
2019-01-13T12:35:38.223Z,3.60
2019-01-13T12:38:09.716Z,3.70
2019-01-13T12:40:43.695Z,3.80
2019-01-13T12:43:14.449Z,3.90
2019-01-13T12:45:46.701Z,3.90
2019-01-13T12:48:17.777Z,4.10
2019-01-13T12:50:48.254Z,4.10
2019-01-13T12:53:20.452Z,4.10
2019-01-13T12:55:50.470Z,4.30
2019-01-13T12:58:20.766Z,4.30
2019-01-13T13:00:50.527Z,4.30
2019-01-13T13:03:20.332Z,4.40
2019-01-13T13:05:50.202Z,4.50
2019-01-13T13:08:20.308Z,4.60
2019-01-13T13:10:54.435Z,4.60
2019-01-13T13:13:24.719Z,4.60
2019-01-13T13:15:55.151Z,4.70
2019-01-13T13:18:25.329Z,4.70
2019-01-13T13:20:56.716Z,4.80
2019-01-13T13:23:28.931Z,4.90
2019-01-13T13:25:58.983Z,4.90
2019-01-13T13:28:32.401Z,4.90
2019-01-13T13:31:02.138Z,4.90
2019-01-13T13:33:38.857Z,5.00
2019-01-13T13:36:11.006Z,5.10
2019-01-13T13:38:41.629Z,5.20
2019-01-13T13:41:12.535Z,5.20
2019-01-13T13:43:40.532Z,5.30
2019-01-13T13:46:11.112Z,5.30
2019-01-13T13:48:40.958Z,5.30
2019-01-13T13:51:11.153Z,5.40
2019-01-13T13:53:40.922Z,5.40
2019-01-13T13:56:10.337Z,5.30
2019-01-13T13:58:40.292Z,5.30
2019-01-13T14:01:10.059Z,5.30
2019-01-13T14:03:45.991Z,5.40
2019-01-13T14:06:15.392Z,5.40
2019-01-13T14:08:46.765Z,5.40
2019-01-13T14:11:21.580Z,5.40
2019-01-13T14:13:51.187Z,5.40
2019-01-13T14:16:23.634Z,5.40
2019-01-13T14:18:58.361Z,5.40
2019-01-13T14:21:29.635Z,5.50
2019-01-13T14:24:01.316Z,5.50
2019-01-13T14:26:59.630Z,5.40
2019-01-13T14:29:43.272Z,5.40
2019-01-13T14:32:19.652Z,5.40
2019-01-13T14:34:50.187Z,5.40
2019-01-13T14:37:20.847Z,5.40
2019-01-13T14:39:52.064Z,5.40
2019-01-13T14:42:24.982Z,5.50
2019-01-13T14:44:57.019Z,5.40
2019-01-13T14:47:27.622Z,5.50
2019-01-13T14:50:09.460Z,5.40
2019-01-13T14:52:50.671Z,5.50
2019-01-13T14:55:21.158Z,5.40
2019-01-13T14:57:51.732Z,5.40
2019-01-13T15:00:23.442Z,5.30
2019-01-13T15:02:53.496Z,5.40
2019-01-13T15:05:24.211Z,5.40
2019-01-13T15:07:57.680Z,5.40
2019-01-13T15:10:28.114Z,5.40
2019-01-13T15:13:00.421Z,5.40
2019-01-13T15:30:40.470Z,5.40
2019-01-13T15:33:17.233Z,5.40
2019-01-13T15:36:37.982Z,5.40
2019-01-13T15:42:37.669Z,5.40
2019-01-13T15:45:21.374Z,5.50
2019-01-13T15:47:59.733Z,5.40
2019-01-13T15:50:35.327Z,5.50
2019-01-13T15:53:18.547Z,5.50
2019-01-13T15:55:48.473Z,5.40
2019-01-13T15:58:25.027Z,5.60
2019-01-13T16:01:07.481Z,5.60
2019-01-13T16:03:41.114Z,5.60
2019-01-13T16:06:20.796Z,5.60
2019-01-13T16:09:11.250Z,5.60
2019-01-13T16:11:43.250Z,5.50
2019-01-13T16:14:19.896Z,5.50
2019-01-13T16:16:50.080Z,5.40
2019-01-13T16:19:20.555Z,5.60
2019-01-13T16:21:51.956Z,5.60
2019-01-13T16:24:22.565Z,5.60
2019-01-13T16:27:10.966Z,5.60
2019-01-13T16:29:33.686Z,5.60
2019-01-13T16:32:03.671Z,5.60
2019-01-13T16:34:36.265Z,5.60
2019-01-13T16:37:05.889Z,5.70
2019-01-13T16:39:40.471Z,5.60
2019-01-13T16:42:18.497Z,5.60
2019-01-13T16:44:56.498Z,5.60
2019-01-13T16:47:33.861Z,5.50
2019-01-13T16:50:15.853Z,5.50
2019-01-13T16:52:47.972Z,5.50
2019-01-13T16:55:18.241Z,5.50
2019-01-13T16:57:48.091Z,5.50
2019-01-13T17:00:23.470Z,5.50
2019-01-13T17:02:57.366Z,5.50
2019-01-13T17:05:28.374Z,5.50
2019-01-13T17:08:01.534Z,5.50
2019-01-13T17:10:32.382Z,5.50
2019-01-13T17:13:08.003Z,5.40
2019-01-13T17:15:42.359Z,5.60
2019-01-13T17:18:16.570Z,5.60
2019-01-13T17:20:56.473Z,5.50
2019-01-13T17:23:27.211Z,5.50
2019-01-13T17:26:09.401Z,5.40
2019-01-13T17:28:44.032Z,5.40
2019-01-13T17:31:14.575Z,5.40
2019-01-13T17:33:45.543Z,5.40
2019-01-13T17:36:25.731Z,5.40
2019-01-13T17:38:59.931Z,5.30
2019-01-13T17:41:36.756Z,5.30
2019-01-13T17:44:09.595Z,5.30
2019-01-13T17:46:41.009Z,5.40
2019-01-13T17:49:17.601Z,5.40
2019-01-13T17:51:49.205Z,5.30
2019-01-13T17:54:20.515Z,5.40
2019-01-13T17:56:51.392Z,5.40
2019-01-13T17:59:23.741Z,5.40
2019-01-13T18:02:20.655Z,5.30
2019-01-13T18:05:03.088Z,5.40
2019-01-13T18:07:44.209Z,5.50
2019-01-13T18:10:15.143Z,5.40
2019-01-13T18:12:46.776Z,5.40
2019-01-13T18:15:17.244Z,5.40
2019-01-13T18:17:48.251Z,5.40
2019-01-13T18:20:29.987Z,5.40
2019-01-13T18:23:00.508Z,5.50
2019-01-13T18:25:33.754Z,5.50
2019-01-13T18:28:07.457Z,5.60
2019-01-13T18:31:01.418Z,5.50
2019-01-13T18:33:35.114Z,5.50
2019-01-13T18:36:09.528Z,5.60
2019-01-13T18:41:19.548Z,5.60
2019-01-13T18:43:50.096Z,5.60
2019-01-13T18:46:20.684Z,5.60
2019-01-13T18:48:50.493Z,5.50
2019-01-13T18:51:27.751Z,5.60
2019-01-13T18:54:02.345Z,5.70
2019-01-13T18:56:32.569Z,5.80
2019-01-13T18:59:05.884Z,5.70
2019-01-13T19:01:38.524Z,5.70
2019-01-13T19:04:21.075Z,5.70
2019-01-13T19:06:53.910Z,5.70
2019-01-13T19:09:25.654Z,5.70
2019-01-13T19:23:36.940Z,5.60
2019-01-13T19:26:12.338Z,5.60
2019-01-13T19:28:44.869Z,5.60
2019-01-13T19:31:16.659Z,5.60
2019-01-13T19:34:09.881Z,5.60
2019-01-13T19:36:40.975Z,5.60
2019-01-13T19:39:18.419Z,5.60
2019-01-13T19:41:57.847Z,5.50
2019-01-13T19:44:29.857Z,5.70
2019-01-13T19:47:04.802Z,5.60
2019-01-13T19:49:41.447Z,5.60
2019-01-13T19:52:18.074Z,5.60
2019-01-13T19:55:06.818Z,5.70
2019-01-13T19:57:36.879Z,5.60
2019-01-13T20:00:22.066Z,5.60
2019-01-13T20:02:59.674Z,5.60
2019-01-13T20:05:36.026Z,5.70
2019-01-13T20:08:15.066Z,5.60
2019-01-13T20:10:46.240Z,5.70
2019-01-13T20:13:16.892Z,5.80
2019-01-13T20:16:01.700Z,5.90
2019-01-13T20:18:43.040Z,6.00
2019-01-13T20:21:15.337Z,5.90
2019-01-13T20:23:45.483Z,6.10
2019-01-13T20:26:21.668Z,6.10
2019-01-13T20:28:57.979Z,6.20
2019-01-13T20:31:29.081Z,6.20
2019-01-13T20:34:01.285Z,6.30
2019-01-13T20:36:43.584Z,6.30
2019-01-13T20:39:15.481Z,6.30
2019-01-13T20:41:55.141Z,6.30
2019-01-13T20:44:26.680Z,6.30
2019-01-13T20:47:01.603Z,6.20
2019-01-13T20:49:57.404Z,6.20
2019-01-13T20:52:34.648Z,6.20
2019-01-13T20:55:07.841Z,6.20
2019-01-13T20:57:43.274Z,6.30
2019-01-13T21:00:26.179Z,6.30
2019-01-13T21:02:54.004Z,6.20
2019-01-13T21:05:27.262Z,6.20
2019-01-13T21:07:58.593Z,6.20
2019-01-13T21:10:43.735Z,6.10
2019-01-13T21:13:16.258Z,6.30
2019-01-13T21:16:08.056Z,6.30
2019-01-13T21:19:02.477Z,6.30
2019-01-13T21:21:41.273Z,6.20
2019-01-13T21:24:25.563Z,6.30
2019-01-13T21:26:58.309Z,6.20
2019-01-13T21:29:31.943Z,6.20
2019-01-13T21:32:03.478Z,6.10
2019-01-13T21:34:40.359Z,6.10
2019-01-13T21:37:18.731Z,6.10
2019-01-13T21:39:52.492Z,6.10
2019-01-13T21:42:32.179Z,6.10
2019-01-13T21:45:04.548Z,6.00
2019-01-13T21:47:35.909Z,6.00
2019-01-13T21:50:28.367Z,6.00
2019-01-13T21:52:58.923Z,6.00
2019-01-13T21:55:29.790Z,6.00
2019-01-13T21:58:00.414Z,6.00
2019-01-13T22:00:42.092Z,6.00
2019-01-13T22:03:12.656Z,6.00
2019-01-13T22:05:42.682Z,6.00
2019-01-13T22:08:13.978Z,6.00
2019-01-13T22:10:44.625Z,6.00
2019-01-13T22:13:15.982Z,6.00
2019-01-13T22:15:49.335Z,6.10
2019-01-13T22:18:23.442Z,6.00
2019-01-13T22:20:57.956Z,6.00
2019-01-13T22:23:30.965Z,6.00
2019-01-13T22:26:07.775Z,6.10
2019-01-13T22:28:38.998Z,6.10
2019-01-13T22:31:23.242Z,6.00
2019-01-13T22:33:56.082Z,6.00
2019-01-13T22:36:41.489Z,6.10
2019-01-13T22:39:11.903Z,6.10
2019-01-13T22:41:50.720Z,6.10
2019-01-13T22:44:21.127Z,6.00
2019-01-13T22:51:50.520Z,6.00
2019-01-13T23:02:09.485Z,6.10
2019-01-13T23:09:00.544Z,6.20
2019-01-13T23:11:56.654Z,6.20
2019-01-13T23:14:29.821Z,6.20
2019-01-13T23:26:29.475Z,6.10
2019-01-13T23:28:59.484Z,6.10
2019-01-13T23:31:36.978Z,6.10
2019-01-13T23:34:07.126Z,6.10
2019-01-13T23:36:37.281Z,6.10
2019-01-13T23:39:09.644Z,6.00
2019-01-13T23:41:40.619Z,6.10
2019-01-13T23:44:13.093Z,6.10
2019-01-13T23:46:43.354Z,6.10
2019-01-13T23:49:21.511Z,6.10
2019-01-13T23:51:51.483Z,6.00
2019-01-13T23:54:25.704Z,6.00
2019-01-13T23:56:56.032Z,5.40
2019-01-13T23:59:27.548Z,5.20
